Time,TemperatureF,DewpointF,PressureIn,WindDirection,WindDirectionDegrees,WindSpeedMPH,WindSpeedGustMPH,Humidity,HourlyPrecipIn,Conditions,Clouds,dailyrainin,SoftwareType,DateUTC
2013-02-19 00:00:00,23.4,3.6,30.13,SW,225,7.4,7.4,42,0.00,,,0.00,WUHU216HW,2013-02-19 05:00:00,
2013-02-19 00:01:00,23.4,3.2,30.13,WSW,248,5.8,7.4,41,0.00,,,0.00,WUHU216HW,2013-02-19 05:01:00,
2013-02-19 00:06:00,23.2,3.0,30.13,West,270,3.6,7.4,41,0.00,,,0.00,WUHU216HW,2013-02-19 05:06:00,
2013-02-19 00:11:00,23.2,3.0,30.13,WSW,248,4.3,8.5,41,0.00,,,0.00,WUHU216HW,2013-02-19 05:11:00,
2013-02-19 00:16:00,23.0,2.8,30.13,SW,225,5.8,9.8,41,0.00,,,0.00,WUHU216HW,2013-02-19 05:16:00,
2013-02-19 00:21:00,23.0,2.8,30.13,SW,225,7.6,9.8,41,0.00,,,0.00,WUHU216HW,2013-02-19 05:21:00,
2013-02-19 00:26:00,23.0,3.3,30.13,WSW,248,4.7,7.6,42,0.00,,,0.00,WUHU216HW,2013-02-19 05:26:00,
2013-02-19 00:31:00,23.2,3.5,30.13,West,270,4.3,8.5,42,0.00,,,0.00,WUHU216HW,2013-02-19 05:31:00,
2013-02-19 00:36:00,23.2,3.5,30.13,West,270,7.2,9.2,42,0.00,,,0.00,WUHU216HW,2013-02-19 05:36:00,
2013-02-19 00:41:00,23.2,3.5,30.13,SW,225,4.9,9.2,42,0.00,,,0.00,WUHU216HW,2013-02-19 05:41:00,
2013-02-19 00:46:00,23.0,3.3,30.13,WSW,248,5.6,9.2,42,0.00,,,0.00,WUHU216HW,2013-02-19 05:46:00,
2013-02-19 00:51:00,23.0,3.3,30.13,SW,225,5.4,9.2,42,0.00,,,0.00,WUHU216HW,2013-02-19 05:51:00,
2013-02-19 00:56:00,23.0,3.3,30.13,SW,225,8.1,10.3,42,0.00,,,0.00,WUHU216HW,2013-02-19 05:56:00,
2013-02-19 01:01:00,23.0,3.3,30.13,SW,225,4.7,10.3,42,0.00,,,0.00,WUHU216HW,2013-02-19 06:01:00,
2013-02-19 01:06:00,23.2,3.5,30.13,WSW,248,6.9,8.5,42,0.00,,,0.00,WUHU216HW,2013-02-19 06:06:00,
2013-02-19 01:11:00,23.4,3.6,30.14,WSW,248,5.8,8.3,42,0.00,,,0.00,WUHU216HW,2013-02-19 06:11:00,
2013-02-19 01:16:00,23.4,3.6,30.14,WSW,248,6.9,7.6,42,0.00,,,0.00,WUHU216HW,2013-02-19 06:16:00,
2013-02-19 01:21:00,23.4,3.2,30.14,West,270,5.4,7.6,41,0.00,,,0.00,WUHU216HW,2013-02-19 06:21:00,
2013-02-19 01:26:00,23.4,3.6,30.14,WSW,248,4.5,8.3,42,0.00,,,0.00,WUHU216HW,2013-02-19 06:26:00,
2013-02-19 01:31:00,23.4,3.6,30.14,WSW,248,6.3,8.3,42,0.00,,,0.00,WUHU216HW,2013-02-19 06:31:00,
2013-02-19 01:36:00,23.4,3.6,30.14,WSW,248,3.4,6.3,42,0.00,,,0.00,WUHU216HW,2013-02-19 06:36:00,
2013-02-19 01:41:00,23.4,3.6,30.14,SSW,203,1.8,5.8,42,0.00,,,0.00,WUHU216HW,2013-02-19 06:41:00,
2013-02-19 01:46:00,23.4,3.6,30.14,WSW,248,4.9,5.4,42,0.00,,,0.00,WUHU216HW,2013-02-19 06:46:00,
2013-02-19 01:51:00,23.4,3.6,30.14,SW,225,4.3,5.4,42,0.00,,,0.00,WUHU216HW,2013-02-19 06:51:00,
2013-02-19 01:56:00,23.6,3.8,30.14,SW,225,6.5,6.5,42,0.00,,,0.00,WUHU216HW,2013-02-19 06:56:00,
2013-02-19 02:01:00,23.8,4.0,30.15,WSW,248,3.8,7.4,42,0.00,,,0.00,WUHU216HW,2013-02-19 07:01:00,
2013-02-19 02:06:00,23.9,4.2,30.14,WSW,248,4.0,7.4,42,0.00,,,0.00,WUHU216HW,2013-02-19 07:06:00,
2013-02-19 02:11:00,23.9,3.6,30.15,SSW,203,2.7,5.4,41,0.00,,,0.00,WUHU216HW,2013-02-19 07:11:00,
2013-02-19 02:16:00,24.1,3.8,30.15,West,270,2.9,6.0,41,0.00,,,0.00,WUHU216HW,2013-02-19 07:16:00,
2013-02-19 02:21:00,24.1,3.3,30.15,WSW,248,4.0,6.0,40,0.00,,,0.00,WUHU216HW,2013-02-19 07:21:00,
2013-02-19 02:26:00,24.3,4.0,30.15,WNW,293,4.7,6.9,41,0.00,,,0.00,WUHU216HW,2013-02-19 07:26:00,
2013-02-19 02:31:00,24.5,3.6,30.15,West,270,4.7,6.9,40,0.00,,,0.00,WUHU216HW,2013-02-19 07:31:00,
2013-02-19 02:36:00,24.7,3.2,30.15,SW,225,5.4,6.5,39,0.00,,,0.00,WUHU216HW,2013-02-19 07:36:00,
2013-02-19 02:41:00,24.7,3.8,30.15,SW,225,2.7,7.4,40,0.00,,,0.00,WUHU216HW,2013-02-19 07:41:00,
2013-02-19 02:46:00,24.7,3.2,30.15,WSW,248,2.5,7.4,39,0.00,,,0.00,WUHU216HW,2013-02-19 07:46:00,
2013-02-19 02:51:00,24.7,3.8,30.14,West,270,3.8,4.9,40,0.00,,,0.00,WUHU216HW,2013-02-19 07:51:00,
2013-02-19 02:56:00,24.8,2.7,30.14,WNW,293,5.4,5.4,38,0.00,,,0.00,WUHU216HW,2013-02-19 07:56:00,
2013-02-19 03:01:00,24.7,3.2,30.14,SW,225,1.6,6.0,39,0.00,,,0.00,WUHU216HW,2013-02-19 08:01:00,
2013-02-19 03:06:00,24.7,3.2,30.15,SW,225,4.7,6.0,39,0.00,,,0.00,WUHU216HW,2013-02-19 08:06:00,
2013-02-19 03:11:00,24.7,3.2,30.15,SW,225,2.2,5.1,39,0.00,,,0.00,WUHU216HW,2013-02-19 08:11:00,
2013-02-19 03:16:00,24.7,3.2,30.15,WSW,248,2.7,5.1,39,0.00,,,0.00,WUHU216HW,2013-02-19 08:16:00,
2013-02-19 03:21:00,24.7,3.2,30.14,WSW,248,3.4,4.7,39,0.00,,,0.00,WUHU216HW,2013-02-19 08:21:00,
2013-02-19 03:26:00,24.5,3.1,30.14,WSW,248,4.5,4.5,39,0.00,,,0.00,WUHU216HW,2013-02-19 08:26:00,
2013-02-19 03:31:00,24.5,3.1,30.14,WSW,248,3.8,4.5,39,0.00,,,0.00,WUHU216HW,2013-02-19 08:31:00,
2013-02-19 03:36:00,24.5,3.6,30.14,WSW,248,1.8,4.9,40,0.00,,,0.00,WUHU216HW,2013-02-19 08:36:00,
2013-02-19 03:41:00,24.3,3.5,30.14,West,270,2.2,4.9,40,0.00,,,0.00,WUHU216HW,2013-02-19 08:41:00,
2013-02-19 03:46:00,24.5,3.6,30.14,SW,225,1.6,4.3,40,0.00,,,0.00,WUHU216HW,2013-02-19 08:46:00,
2013-02-19 03:51:00,24.5,3.6,30.14,SW,225,1.8,4.0,40,0.00,,,0.00,WUHU216HW,2013-02-19 08:51:00,
2013-02-19 03:56:00,24.7,4.8,30.14,West,270,2.5,3.4,42,0.00,,,0.00,WUHU216HW,2013-02-19 08:56:00,
2013-02-19 04:01:00,24.8,5.0,30.14,WNW,293,2.2,4.0,42,0.00,,,0.00,WUHU216HW,2013-02-19 09:01:00,
2013-02-19 04:06:00,24.8,5.0,30.14,WSW,248,1.3,4.0,42,0.00,,,0.00,WUHU216HW,2013-02-19 09:06:00,
2013-02-19 04:11:00,25.0,5.1,30.13,NNW,338,1.1,3.4,42,0.00,,,0.00,WUHU216HW,2013-02-19 09:11:00,
2013-02-19 04:16:00,24.8,4.4,30.13,NW,315,0.4,3.6,41,0.00,,,0.00,WUHU216HW,2013-02-19 09:16:00,
2013-02-19 04:21:00,24.8,4.4,30.13,West,270,1.1,3.6,41,0.00,,,0.00,WUHU216HW,2013-02-19 09:21:00,
2013-02-19 04:26:00,24.7,4.3,30.13,West,270,0.0,1.8,41,0.00,,,0.00,WUHU216HW,2013-02-19 09:26:00,
2013-02-19 04:31:00,24.1,4.8,30.13,WSW,248,0.0,1.3,43,0.00,,,0.00,WUHU216HW,2013-02-19 09:31:00,
2013-02-19 04:36:00,23.9,4.6,30.12,SSW,203,0.0,0.4,43,0.00,,,0.00,WUHU216HW,2013-02-19 09:36:00,
2013-02-19 04:41:00,23.8,4.4,30.12,SSW,203,0.0,0.4,43,0.00,,,0.00,WUHU216HW,2013-02-19 09:41:00,
2013-02-19 04:46:00,23.4,4.6,30.12,SE,135,0.0,0.7,44,0.00,,,0.00,WUHU216HW,2013-02-19 09:46:00,
2013-02-19 04:51:00,23.0,4.3,30.11,East,90,0.4,1.1,44,0.00,,,0.00,WUHU216HW,2013-02-19 09:51:00,
2013-02-19 04:56:00,22.9,4.2,30.11,East,90,0.0,1.1,44,0.00,,,0.00,WUHU216HW,2013-02-19 09:56:00,
2013-02-19 05:01:00,22.7,4.0,30.11,WSW,248,0.4,0.9,44,0.00,,,0.00,WUHU216HW,2013-02-19 10:01:00,
2013-02-19 05:06:00,23.0,4.8,30.12,WSW,248,0.9,1.1,45,0.00,,,0.00,WUHU216HW,2013-02-19 10:06:00,
2013-02-19 05:11:00,23.0,6.8,30.12,SSW,203,1.1,2.5,49,0.00,,,0.00,WUHU216HW,2013-02-19 10:11:00,
2013-02-19 05:16:00,23.2,6.4,30.11,South,180,0.9,2.5,48,0.00,,,0.00,WUHU216HW,2013-02-19 10:16:00,
2013-02-19 05:21:00,23.4,6.6,30.12,SSE,158,0.7,2.2,48,0.00,,,0.00,WUHU216HW,2013-02-19 10:21:00,
2013-02-19 05:26:00,23.4,7.0,30.11,SW,225,1.1,1.8,49,0.00,,,0.00,WUHU216HW,2013-02-19 10:26:00,
2013-02-19 05:31:00,23.8,6.4,30.11,SW,225,0.2,1.8,47,0.00,,,0.00,WUHU216HW,2013-02-19 10:31:00,
2013-02-19 05:36:00,23.9,6.6,30.11,SW,225,0.7,1.1,47,0.00,,,0.00,WUHU216HW,2013-02-19 10:36:00,
2013-02-19 05:41:00,23.9,7.6,30.11,SW,225,1.3,1.3,49,0.00,,,0.00,WUHU216HW,2013-02-19 10:41:00,
2013-02-19 05:46:00,23.9,8.0,30.11,SW,225,0.9,1.6,50,0.00,,,0.00,WUHU216HW,2013-02-19 10:46:00,
2013-02-19 05:51:00,24.1,7.2,30.11,WSW,248,1.8,1.8,48,0.00,,,0.00,WUHU216HW,2013-02-19 10:51:00,
2013-02-19 05:56:00,24.3,6.8,30.11,WSW,248,1.6,2.9,47,0.00,,,0.00,WUHU216HW,2013-02-19 10:56:00,
2013-02-19 06:01:00,24.7,7.2,30.11,West,270,0.9,2.9,47,0.00,,,0.00,WUHU216HW,2013-02-19 11:01:00,
2013-02-19 06:06:00,24.8,5.4,30.11,WSW,248,0.9,2.5,43,0.00,,,0.00,WUHU216HW,2013-02-19 11:06:00,
2013-02-19 06:11:00,24.8,5.4,30.11,SW,225,2.0,2.7,43,0.00,,,0.00,WUHU216HW,2013-02-19 11:11:00,
2013-02-19 06:16:00,25.0,5.1,30.11,SW,225,1.8,2.7,42,0.00,,,0.00,WUHU216HW,2013-02-19 11:16:00,
2013-02-19 06:21:00,25.2,5.2,30.11,SW,225,1.3,2.2,42,0.00,,,0.00,WUHU216HW,2013-02-19 11:21:00,
2013-02-19 06:26:00,25.4,6.0,30.11,WSW,248,1.8,2.5,43,0.00,,,0.00,WUHU216HW,2013-02-19 11:26:00,
2013-02-19 06:31:00,25.6,6.0,30.11,WSW,248,1.8,5.4,43,0.00,,,0.00,WUHU216HW,2013-02-19 11:31:00,
2013-02-19 06:36:00,25.6,6.6,30.11,WSW,248,1.1,5.4,44,0.00,,,0.00,WUHU216HW,2013-02-19 11:36:00,
2013-02-19 06:41:00,25.6,6.6,30.11,WSW,248,1.1,2.5,44,0.00,,,0.00,WUHU216HW,2013-02-19 11:41:00,
2013-02-19 06:46:00,25.4,6.4,30.11,West,270,0.2,4.0,44,0.00,,,0.00,WUHU216HW,2013-02-19 11:46:00,
2013-02-19 06:51:00,25.6,7.0,30.12,NW,315,0.4,4.0,45,0.00,,,0.00,WUHU216HW,2013-02-19 11:51:00,
2013-02-19 06:56:00,25.6,7.0,30.11,NW,315,2.5,2.5,45,0.00,,,0.00,WUHU216HW,2013-02-19 11:56:00,
2013-02-19 07:01:00,25.6,7.0,30.11,WNW,293,2.0,3.1,45,0.00,,,0.00,WUHU216HW,2013-02-19 12:01:00,
2013-02-19 07:06:00,25.7,7.7,30.11,NNW,338,0.9,3.1,46,0.00,,,0.00,WUHU216HW,2013-02-19 12:06:00,
2013-02-19 07:11:00,25.7,7.7,30.11,West,270,0.2,2.0,46,0.00,,,0.00,WUHU216HW,2013-02-19 12:11:00,
2013-02-19 07:16:00,25.9,7.8,30.11,WNW,293,1.1,2.2,46,0.00,,,0.00,WUHU216HW,2013-02-19 12:16:00,
2013-02-19 07:21:00,25.9,7.4,30.11,SSW,203,0.9,2.2,45,0.00,,,0.00,WUHU216HW,2013-02-19 12:21:00,
2013-02-19 07:26:00,25.9,7.4,30.10,SSW,203,0.4,1.8,45,0.00,,,0.00,WUHU216HW,2013-02-19 12:26:00,
2013-02-19 07:31:00,26.1,7.6,30.10,West,270,0.7,1.3,45,0.00,,,0.00,WUHU216HW,2013-02-19 12:31:00,
2013-02-19 07:36:00,26.3,7.7,30.10,WSW,248,0.4,0.9,45,0.00,,,0.00,WUHU216HW,2013-02-19 12:36:00,
2013-02-19 07:41:00,26.3,7.2,30.10,WSW,248,0.2,0.9,44,0.00,,,0.00,WUHU216HW,2013-02-19 12:41:00,
2013-02-19 07:46:00,26.3,7.7,30.10,WSW,248,0.0,0.7,45,0.00,,,0.00,WUHU216HW,2013-02-19 12:46:00,
2013-02-19 07:51:00,26.5,7.8,30.10,SW,225,0.0,0.4,45,0.00,,,0.00,WUHU216HW,2013-02-19 12:51:00,
2013-02-19 07:56:00,26.6,7.6,30.10,SW,225,0.0,0.9,44,0.00,,,0.00,WUHU216HW,2013-02-19 12:56:00,
2013-02-19 08:01:00,26.6,8.0,30.09,WSW,248,0.0,0.9,45,0.00,,,0.00,WUHU216HW,2013-02-19 13:01:00,
2013-02-19 08:06:00,26.6,8.0,30.09,WSW,248,0.0,1.3,45,0.00,,,0.00,WUHU216HW,2013-02-19 13:06:00,
2013-02-19 08:11:00,26.8,8.2,30.09,WNW,293,0.0,1.3,45,0.00,,,0.00,WUHU216HW,2013-02-19 13:11:00,
2013-02-19 08:16:00,26.8,8.2,30.09,SW,225,0.4,0.7,45,0.00,,,0.00,WUHU216HW,2013-02-19 13:16:00,
2013-02-19 08:21:00,27.0,8.4,30.09,SW,225,0.2,0.9,45,0.00,,,0.00,WUHU216HW,2013-02-19 13:21:00,
2013-02-19 08:26:00,27.2,8.6,30.09,SW,225,0.2,1.1,45,0.00,,,0.00,WUHU216HW,2013-02-19 13:26:00,
2013-02-19 08:31:00,27.7,8.6,30.09,SW,225,1.3,5.4,44,0.00,,,0.00,WUHU216HW,2013-02-19 13:31:00,
2013-02-19 08:36:00,28.4,9.2,30.09,SW,225,1.1,5.4,44,0.00,,,0.00,WUHU216HW,2013-02-19 13:36:00,
2013-02-19 08:41:00,29.0,9.7,30.09,SW,225,1.3,2.5,44,0.00,,,0.00,WUHU216HW,2013-02-19 13:41:00,
2013-02-19 08:46:00,29.5,9.2,30.09,South,180,2.5,3.6,42,0.00,,,0.00,WUHU216HW,2013-02-19 13:46:00,
2013-02-19 08:51:00,29.9,9.0,30.09,SE,135,2.2,3.6,41,0.00,,,0.00,WUHU216HW,2013-02-19 13:51:00,
2013-02-19 08:56:00,30.6,9.6,30.09,SSW,203,0.4,3.6,41,0.00,,,0.00,WUHU216HW,2013-02-19 13:56:00,
2013-02-19 09:01:00,31.3,9.8,30.08,SSW,203,1.8,3.6,40,0.00,,,0.00,WUHU216HW,2013-02-19 14:01:00,
2013-02-19 09:06:00,32.2,10.6,30.08,South,180,2.0,3.4,40,0.00,,,0.00,WUHU216HW,2013-02-19 14:06:00,
2013-02-19 09:11:00,33.1,11.4,30.08,SW,225,1.6,3.4,40,0.00,,,0.00,WUHU216HW,2013-02-19 14:11:00,
2013-02-19 09:16:00,34.0,11.6,30.08,SE,135,1.1,3.4,39,0.00,,,0.00,WUHU216HW,2013-02-19 14:16:00,
2013-02-19 09:21:00,35.5,11.6,30.08,SE,135,1.8,2.9,37,0.00,,,0.00,WUHU216HW,2013-02-19 14:21:00,
2013-02-19 09:26:00,35.6,11.7,30.08,SW,225,3.6,4.9,37,0.00,,,0.00,WUHU216HW,2013-02-19 14:26:00,
2013-02-19 09:31:00,35.8,12.5,30.08,SW,225,3.4,5.6,38,0.00,,,0.00,WUHU216HW,2013-02-19 14:31:00,
2013-02-19 09:36:00,36.2,12.3,30.08,SW,225,3.1,5.6,37,0.00,,,0.00,WUHU216HW,2013-02-19 14:36:00,
2013-02-19 09:41:00,36.7,12.7,30.08,SSW,203,4.3,4.7,37,0.00,,,0.00,WUHU216HW,2013-02-19 14:41:00,
2013-02-19 09:46:00,36.9,12.3,30.08,SW,225,3.6,4.7,36,0.00,,,0.00,WUHU216HW,2013-02-19 14:46:00,
2013-02-19 09:51:00,37.4,13.3,30.08,WSW,248,4.0,5.8,37,0.00,,,0.00,WUHU216HW,2013-02-19 14:51:00,
2013-02-19 09:56:00,38.0,12.5,30.07,South,180,1.1,5.8,35,0.00,,,0.00,WUHU216HW,2013-02-19 14:56:00,
2013-02-19 10:01:00,38.5,13.7,30.07,SSW,203,5.1,5.8,36,0.00,,,0.00,WUHU216HW,2013-02-19 15:01:00,
2013-02-19 10:06:00,39.2,13.7,30.07,SSE,158,6.7,6.7,35,0.00,,,0.00,WUHU216HW,2013-02-19 15:06:00,
2013-02-19 10:11:00,39.8,13.5,30.07,SW,225,5.4,6.9,34,0.00,,,0.00,WUHU216HW,2013-02-19 15:11:00,
2013-02-19 10:16:00,40.7,14.9,30.06,SW,225,8.3,8.3,35,0.00,,,0.00,WUHU216HW,2013-02-19 15:16:00,
2013-02-19 10:21:00,40.7,15.7,30.06,SSW,203,6.9,9.4,36,0.00,,,0.00,WUHU216HW,2013-02-19 15:21:00,
2013-02-19 10:26:00,40.7,16.3,30.05,SW,225,6.9,9.4,37,0.00,,,0.00,WUHU216HW,2013-02-19 15:26:00,
2013-02-19 10:31:00,40.7,17.6,30.05,SSW,203,4.9,8.7,39,0.00,,,0.00,WUHU216HW,2013-02-19 15:31:00,
2013-02-19 10:36:00,40.7,18.2,30.05,SSW,203,5.6,8.3,40,0.00,,,0.00,WUHU216HW,2013-02-19 15:36:00,
2013-02-19 10:41:00,40.5,18.5,30.05,SW,225,3.1,8.3,41,0.00,,,0.00,WUHU216HW,2013-02-19 15:41:00,
2013-02-19 10:46:00,40.7,18.2,30.05,SSW,203,5.6,7.8,40,0.00,,,0.00,WUHU216HW,2013-02-19 15:46:00,
2013-02-19 10:51:00,41.0,19.1,30.05,SW,225,3.1,7.8,41,0.00,,,0.00,WUHU216HW,2013-02-19 15:51:00,
2013-02-19 10:56:00,40.5,19.1,30.05,South,180,3.4,7.8,42,0.00,,,0.00,WUHU216HW,2013-02-19 15:56:00,
2013-02-19 11:01:00,40.7,19.8,30.05,SSW,203,2.9,6.5,43,0.00,,,0.00,WUHU216HW,2013-02-19 16:01:00,
2013-02-19 11:06:00,41.0,20.1,30.04,SW,225,4.9,7.2,43,0.00,,,0.00,WUHU216HW,2013-02-19 16:06:00,
2013-02-19 11:11:00,40.9,20.4,30.05,SW,225,7.8,8.1,44,0.00,,,0.00,WUHU216HW,2013-02-19 16:11:00,
2013-02-19 11:16:00,41.2,20.8,30.05,SSW,203,3.8,8.1,44,0.00,,,0.00,WUHU216HW,2013-02-19 16:16:00,
2013-02-19 11:21:00,41.4,21.0,30.04,SSE,158,4.3,8.9,44,0.00,,,0.00,WUHU216HW,2013-02-19 16:21:00,
2013-02-19 11:26:00,41.6,21.7,30.04,South,180,7.2,8.9,45,0.00,,,0.00,WUHU216HW,2013-02-19 16:26:00,
2013-02-19 11:31:00,41.8,21.9,30.04,SW,225,6.3,8.1,45,0.00,,,0.00,WUHU216HW,2013-02-19 16:31:00,
2013-02-19 11:36:00,41.9,22.0,30.03,SSW,203,7.4,7.6,45,0.00,,,0.00,WUHU216HW,2013-02-19 16:36:00,
2013-02-19 11:41:00,42.5,22.5,30.03,SSE,158,8.5,8.5,45,0.00,,,0.00,WUHU216HW,2013-02-19 16:41:00,
2013-02-19 11:46:00,42.5,22.5,30.02,SSW,203,4.7,9.4,45,0.00,,,0.00,WUHU216HW,2013-02-19 16:46:00,
2013-02-19 11:51:00,42.8,22.9,30.02,South,180,5.4,9.4,45,0.00,,,0.00,WUHU216HW,2013-02-19 16:51:00,
2013-02-19 11:56:00,43.2,23.2,30.01,SSE,158,4.9,6.5,45,0.00,,,0.00,WUHU216HW,2013-02-19 16:56:00,
2013-02-19 12:01:00,43.7,23.1,30.00,SW,225,5.8,6.9,44,0.00,,,0.00,WUHU216HW,2013-02-19 17:01:00,
2013-02-19 12:06:00,43.2,23.2,30.00,SSW,203,5.8,7.2,45,0.00,,,0.00,WUHU216HW,2013-02-19 17:06:00,
2013-02-19 12:11:00,43.0,23.1,30.00,SSE,158,6.0,9.4,45,0.00,,,0.00,WUHU216HW,2013-02-19 17:11:00,
2013-02-19 12:16:00,43.0,23.6,30.00,SSE,158,4.0,9.4,46,0.00,,,0.00,WUHU216HW,2013-02-19 17:16:00,
2013-02-19 12:21:00,43.0,24.1,30.00,South,180,4.7,7.8,47,0.00,,,0.00,WUHU216HW,2013-02-19 17:21:00,
2013-02-19 12:26:00,43.6,24.6,30.00,SSW,203,4.9,6.3,47,0.00,,,0.00,WUHU216HW,2013-02-19 17:26:00,
2013-02-19 12:31:00,43.6,24.6,29.99,SSW,203,3.1,6.3,47,0.00,,,0.00,WUHU216HW,2013-02-19 17:31:00,
2013-02-19 12:36:00,43.6,24.6,29.99,SSW,203,2.7,6.3,47,0.00,,,0.00,WUHU216HW,2013-02-19 17:36:00,
2013-02-19 12:41:00,43.7,24.8,29.98,SSE,158,2.9,6.0,47,0.00,,,0.00,WUHU216HW,2013-02-19 17:41:00,
2013-02-19 12:46:00,43.9,25.5,29.98,SSE,158,3.8,4.0,48,0.00,,,0.00,WUHU216HW,2013-02-19 17:46:00,
2013-02-19 12:51:00,43.9,24.9,29.98,South,180,3.8,6.0,47,0.00,,,0.00,WUHU216HW,2013-02-19 17:51:00,
2013-02-19 12:56:00,43.9,25.5,29.97,SSW,203,4.7,8.5,48,0.00,,,0.00,WUHU216HW,2013-02-19 17:56:00,
2013-02-19 13:01:00,44.3,25.2,29.97,South,180,4.0,8.5,47,0.00,,,0.00,WUHU216HW,2013-02-19 18:01:00,
2013-02-19 13:06:00,45.0,25.9,29.96,SSW,203,3.4,6.9,47,0.00,,,0.00,WUHU216HW,2013-02-19 18:06:00,
2013-02-19 13:11:00,45.0,25.9,29.96,WSW,248,5.1,8.5,47,0.00,,,0.00,WUHU216HW,2013-02-19 18:11:00,
2013-02-19 13:16:00,45.0,25.9,29.96,SW,225,3.1,8.5,47,0.00,,,0.00,WUHU216HW,2013-02-19 18:16:00,
2013-02-19 13:21:00,45.5,26.4,29.95,WSW,248,0.7,6.5,47,0.00,,,0.00,WUHU216HW,2013-02-19 18:21:00,
2013-02-19 13:26:00,45.4,26.2,29.95,SSW,203,0.4,4.7,47,0.00,,,0.00,WUHU216HW,2013-02-19 18:26:00,
2013-02-19 13:31:00,45.7,26.6,29.95,SSW,203,1.6,4.9,47,0.00,,,0.00,WUHU216HW,2013-02-19 18:31:00,
2013-02-19 13:36:00,45.5,26.9,29.95,East,90,2.7,4.9,48,0.00,,,0.00,WUHU216HW,2013-02-19 18:36:00,
2013-02-19 13:41:00,45.5,26.9,29.95,SW,225,4.5,4.5,48,0.00,,,0.00,WUHU216HW,2013-02-19 18:41:00,
2013-02-19 13:46:00,45.5,28.0,29.94,SSW,203,2.5,4.7,50,0.00,,,0.00,WUHU216HW,2013-02-19 18:46:00,
2013-02-19 13:51:00,45.5,27.5,29.94,SW,225,4.7,4.7,49,0.00,,,0.00,WUHU216HW,2013-02-19 18:51:00,
2013-02-19 13:56:00,45.4,27.8,29.94,SSW,203,3.6,8.7,50,0.00,,,0.00,WUHU216HW,2013-02-19 18:56:00,
2013-02-19 14:01:00,45.4,27.8,29.93,South,180,3.1,8.7,50,0.00,,,0.00,WUHU216HW,2013-02-19 19:01:00,
2013-02-19 14:06:00,45.5,27.5,29.93,East,90,2.0,6.3,49,0.00,,,0.00,WUHU216HW,2013-02-19 19:06:00,
2013-02-19 14:11:00,45.4,27.8,29.92,ESE,113,1.8,5.6,50,0.00,,,0.00,WUHU216HW,2013-02-19 19:11:00,
2013-02-19 14:16:00,45.7,28.6,29.92,South,180,0.7,4.5,51,0.00,,,0.00,WUHU216HW,2013-02-19 19:16:00,
2013-02-19 14:21:00,45.7,28.6,29.92,SE,135,2.2,2.7,51,0.00,,,0.00,WUHU216HW,2013-02-19 19:21:00,
2013-02-19 14:26:00,45.7,28.6,29.92,ESE,113,2.5,4.7,51,0.00,,,0.00,WUHU216HW,2013-02-19 19:26:00,
2013-02-19 14:31:00,45.7,28.6,29.91,ESE,113,2.2,4.7,51,0.00,,,0.00,WUHU216HW,2013-02-19 19:31:00,
2013-02-19 14:36:00,45.7,28.6,29.91,ESE,113,1.6,3.4,51,0.00,,,0.00,WUHU216HW,2013-02-19 19:36:00,
2013-02-19 14:41:00,45.7,29.1,29.91,SE,135,0.7,3.4,52,0.00,,,0.00,WUHU216HW,2013-02-19 19:41:00,
2013-02-19 14:46:00,45.7,28.6,29.90,SE,135,1.1,2.0,51,0.00,,,0.00,WUHU216HW,2013-02-19 19:46:00,
2013-02-19 14:51:00,45.4,28.7,29.90,ESE,113,1.8,3.1,52,0.00,,,0.00,WUHU216HW,2013-02-19 19:51:00,
2013-02-19 14:56:00,45.4,28.7,29.89,ESE,113,1.1,3.1,52,0.00,,,0.00,WUHU216HW,2013-02-19 19:56:00,
2013-02-19 15:01:00,45.2,28.5,29.89,ESE,113,0.4,2.0,52,0.00,,,0.00,WUHU216HW,2013-02-19 20:01:00,
2013-02-19 15:06:00,45.0,28.9,29.89,East,90,0.7,2.7,53,0.00,,,0.00,WUHU216HW,2013-02-19 20:06:00,
2013-02-19 15:11:00,44.6,28.5,29.88,SSE,158,0.0,2.7,53,0.00,,,0.00,WUHU216HW,2013-02-19 20:11:00,
2013-02-19 15:16:00,44.8,28.7,29.88,ESE,113,1.6,1.8,53,0.00,,,0.00,WUHU216HW,2013-02-19 20:16:00,
2013-02-19 15:21:00,44.6,28.5,29.88,ESE,113,1.8,4.3,53,0.00,,,0.00,WUHU216HW,2013-02-19 20:21:00,
2013-02-19 15:26:00,44.6,28.5,29.87,SE,135,0.0,4.3,53,0.00,,,0.00,WUHU216HW,2013-02-19 20:26:00,
2013-02-19 15:31:00,44.6,28.5,29.87,SE,135,0.0,2.0,53,0.00,,,0.00,WUHU216HW,2013-02-19 20:31:00,
2013-02-19 15:36:00,44.8,28.7,29.86,ESE,113,1.3,2.0,53,0.00,,,0.00,WUHU216HW,2013-02-19 20:36:00,
2013-02-19 15:41:00,44.8,29.2,29.86,SE,135,1.3,2.0,54,0.00,,,0.00,WUHU216HW,2013-02-19 20:41:00,
2013-02-19 15:46:00,44.5,29.3,29.85,ESE,113,0.4,2.0,55,0.00,,,0.00,WUHU216HW,2013-02-19 20:46:00,
2013-02-19 15:51:00,44.3,29.5,29.85,SSW,203,0.9,1.6,56,0.00,,,0.00,WUHU216HW,2013-02-19 20:51:00,
2013-02-19 15:56:00,43.9,29.2,29.85,SE,135,0.4,2.2,56,0.00,,,0.00,WUHU216HW,2013-02-19 20:56:00,
2013-02-19 16:01:00,44.1,30.2,29.85,SSE,158,0.4,3.1,58,0.00,,,0.00,WUHU216HW,2013-02-19 21:01:00,
2013-02-19 16:06:00,44.3,29.5,29.84,East,90,0.4,3.1,56,0.00,,,0.00,WUHU216HW,2013-02-19 21:06:00,
2013-02-19 16:11:00,44.5,29.7,29.84,SE,135,0.4,3.4,56,0.00,,,0.00,WUHU216HW,2013-02-19 21:11:00,
2013-02-19 16:16:00,44.3,30.0,29.83,East,90,0.9,3.4,57,0.00,,,0.00,WUHU216HW,2013-02-19 21:16:00,
2013-02-19 16:21:00,44.5,30.2,29.83,South,180,2.5,3.4,57,0.00,,,0.00,WUHU216HW,2013-02-19 21:21:00,
2013-02-19 16:26:00,44.5,30.6,29.83,SSW,203,1.8,3.4,58,0.00,,,0.00,WUHU216HW,2013-02-19 21:26:00,
2013-02-19 16:31:00,44.5,30.6,29.82,South,180,0.4,2.5,58,0.00,,,0.00,WUHU216HW,2013-02-19 21:31:00,
2013-02-19 16:36:00,44.5,30.6,29.82,SE,135,1.3,4.0,58,0.00,,,0.00,WUHU216HW,2013-02-19 21:36:00,
2013-02-19 16:41:00,44.5,31.9,29.82,South,180,3.4,4.0,61,0.00,,,0.00,WUHU216HW,2013-02-19 21:41:00,
2013-02-19 16:46:00,44.6,32.0,29.82,SSW,203,2.9,5.6,61,0.00,,,0.00,WUHU216HW,2013-02-19 21:46:00,
2013-02-19 16:51:00,44.8,32.9,29.82,SSW,203,2.9,9.8,63,0.00,,,0.00,WUHU216HW,2013-02-19 21:51:00,
2013-02-19 16:56:00,44.8,33.8,29.82,SSW,203,5.1,9.8,65,0.00,,,0.00,WUHU216HW,2013-02-19 21:56:00,
2013-02-19 17:01:00,44.3,34.0,29.82,SSW,203,6.0,8.3,67,0.00,,,0.00,WUHU216HW,2013-02-19 22:01:00,
2013-02-19 17:06:00,44.3,34.4,29.82,SSW,203,3.6,7.6,68,0.00,,,0.00,WUHU216HW,2013-02-19 22:06:00,
2013-02-19 17:11:00,44.1,34.6,29.82,SSW,203,3.8,7.4,69,0.00,,,0.00,WUHU216HW,2013-02-19 22:11:00,
2013-02-19 17:16:00,43.6,34.8,29.82,SSW,203,5.6,7.8,71,0.00,,,0.00,WUHU216HW,2013-02-19 22:16:00,
2013-02-19 17:21:00,43.7,35.0,29.81,ESE,113,4.0,7.8,71,0.00,,,0.00,WUHU216HW,2013-02-19 22:21:00,
2013-02-19 17:26:00,43.6,35.2,29.81,SSW,203,6.3,7.6,72,0.00,,,0.00,WUHU216HW,2013-02-19 22:26:00,
2013-02-19 17:31:00,43.9,35.5,29.81,SSW,203,4.9,6.3,72,0.00,,,0.00,WUHU216HW,2013-02-19 22:31:00,
2013-02-19 17:36:00,43.6,35.5,29.80,South,180,3.4,6.7,73,0.00,,,0.00,WUHU216HW,2013-02-19 22:36:00,
2013-02-19 17:41:00,42.8,34.8,29.80,SSW,203,2.0,6.7,73,0.00,,,0.00,WUHU216HW,2013-02-19 22:41:00,
2013-02-19 17:46:00,42.5,34.5,29.79,SSW,203,1.6,4.7,73,0.00,,,0.00,WUHU216HW,2013-02-19 22:46:00,
2013-02-19 17:51:00,42.3,33.9,29.79,SE,135,0.4,4.5,72,0.00,,,0.00,WUHU216HW,2013-02-19 22:51:00,
2013-02-19 17:56:00,42.5,36.4,29.79,SE,135,1.8,4.5,79,0.00,,,0.00,WUHU216HW,2013-02-19 22:56:00,
2013-02-19 18:01:00,42.3,34.9,29.79,WSW,248,0.0,4.5,75,0.00,,,0.00,WUHU216HW,2013-02-19 23:01:00,
2013-02-19 18:06:00,42.1,34.7,29.78,ESE,113,1.1,4.5,75,0.00,,,0.00,WUHU216HW,2013-02-19 23:06:00,
2013-02-19 18:11:00,42.1,35.7,29.78,SE,135,1.6,3.4,78,0.00,,,0.00,WUHU216HW,2013-02-19 23:11:00,
2013-02-19 18:16:00,41.8,35.0,29.78,ENE,68,1.8,2.0,77,0.00,,,0.00,WUHU216HW,2013-02-19 23:16:00,
2013-02-19 18:21:00,41.6,35.2,29.77,SSE,158,2.0,2.5,78,0.00,,,0.00,WUHU216HW,2013-02-19 23:21:00,
2013-02-19 18:26:00,41.4,35.3,29.77,SE,135,0.4,2.5,79,0.00,,,0.00,WUHU216HW,2013-02-19 23:26:00,
2013-02-19 18:31:00,41.2,34.8,29.77,SSE,158,1.6,2.5,78,0.00,,,0.00,WUHU216HW,2013-02-19 23:31:00,
2013-02-19 18:36:00,41.2,35.5,29.76,East,90,1.1,3.4,80,0.00,,,0.00,WUHU216HW,2013-02-19 23:36:00,
2013-02-19 18:41:00,41.2,35.1,29.76,SSE,158,1.3,3.4,79,0.00,,,0.00,WUHU216HW,2013-02-19 23:41:00,
2013-02-19 18:46:00,41.0,35.9,29.76,SW,225,1.8,2.2,82,0.00,,,0.00,WUHU216HW,2013-02-19 23:46:00,
2013-02-19 18:51:00,40.7,35.6,29.75,SE,135,0.7,2.0,82,0.00,,,0.00,WUHU216HW,2013-02-19 23:51:00,
2013-02-19 18:56:00,40.7,35.3,29.75,ESE,113,0.4,1.8,81,0.00,,,0.00,WUHU216HW,2013-02-19 23:56:00,
2013-02-19 19:01:00,40.7,35.3,29.74,East,90,1.1,1.6,81,0.00,,,0.00,WUHU216HW,2013-02-20 00:01:00,
2013-02-19 19:06:00,40.7,35.3,29.74,East,90,0.0,1.6,81,0.00,,,0.00,WUHU216HW,2013-02-20 00:06:00,
2013-02-19 19:11:00,40.7,35.6,29.74,East,90,0.4,3.1,82,0.00,,,0.00,WUHU216HW,2013-02-20 00:11:00,
2013-02-19 19:16:00,40.7,35.8,29.74,ESE,113,0.4,3.1,83,0.00,,,0.00,WUHU216HW,2013-02-20 00:16:00,
2013-02-19 19:21:00,40.7,35.6,29.73,SE,135,1.1,1.8,82,0.00,,,0.00,WUHU216HW,2013-02-20 00:21:00,
2013-02-19 19:26:00,40.7,35.6,29.72,South,180,0.7,1.1,82,0.00,,,0.00,WUHU216HW,2013-02-20 00:26:00,
2013-02-19 19:31:00,40.5,35.7,29.72,South,180,2.2,2.7,83,0.00,,,0.00,WUHU216HW,2013-02-20 00:31:00,
2013-02-19 19:36:00,40.5,35.7,29.72,SE,135,2.2,2.9,83,0.00,,,0.00,WUHU216HW,2013-02-20 00:36:00,
2013-02-19 19:41:00,40.3,35.6,29.72,SSE,158,0.4,2.9,83,0.00,,,0.00,WUHU216HW,2013-02-20 00:41:00,
2013-02-19 19:46:00,40.7,38.0,29.71,SE,135,1.1,5.1,90,0.00,,,0.00,WUHU216HW,2013-02-20 00:46:00,
2013-02-19 19:51:00,40.7,37.1,29.71,ENE,68,3.4,5.1,87,0.00,,,0.00,WUHU216HW,2013-02-20 00:51:00,
2013-02-19 19:56:00,40.5,36.9,29.70,East,90,2.5,3.4,87,0.00,,,0.00,WUHU216HW,2013-02-20 00:56:00,
2013-02-19 20:01:00,40.5,36.3,29.70,WSW,248,0.9,3.4,85,0.00,,,0.00,WUHU216HW,2013-02-20 01:01:00,
2013-02-19 20:06:00,40.5,36.6,29.69,SSW,203,0.2,3.1,86,0.00,,,0.00,WUHU216HW,2013-02-20 01:06:00,
2013-02-19 20:11:00,40.5,36.3,29.69,SSE,158,0.9,3.1,85,0.00,,,0.00,WUHU216HW,2013-02-20 01:11:00,
2013-02-19 20:16:00,40.3,36.5,29.69,SW,225,0.0,2.0,86,0.00,,,0.00,WUHU216HW,2013-02-20 01:16:00,
2013-02-19 20:21:00,40.0,36.1,29.67,ENE,68,1.1,2.5,86,0.00,,,0.00,WUHU216HW,2013-02-20 01:21:00,
2013-02-19 20:26:00,40.0,36.1,29.67,NE,45,0.0,2.5,86,0.00,,,0.00,WUHU216HW,2013-02-20 01:26:00,
2013-02-19 20:31:00,40.0,36.4,29.67,SSE,158,1.8,3.4,87,0.00,,,0.00,WUHU216HW,2013-02-20 01:31:00,
2013-02-19 20:36:00,40.7,38.5,29.66,SSE,158,2.7,7.4,92,0.00,,,0.00,WUHU216HW,2013-02-20 01:36:00,
2013-02-19 20:41:00,40.7,38.0,29.66,ESE,113,1.8,7.4,90,0.00,,,0.00,WUHU216HW,2013-02-20 01:41:00,
2013-02-19 20:46:00,40.9,38.2,29.65,ESE,113,1.8,4.7,90,0.00,,,0.00,WUHU216HW,2013-02-20 01:46:00,
2013-02-19 20:51:00,40.7,38.0,29.65,SSW,203,0.4,4.7,90,0.00,,,0.00,WUHU216HW,2013-02-20 01:51:00,
2013-02-19 20:56:00,40.9,37.5,29.65,WSW,248,2.9,4.3,88,0.00,,,0.00,WUHU216HW,2013-02-20 01:56:00,
2013-02-19 21:01:00,40.9,38.2,29.65,WNW,293,3.1,4.9,90,0.00,,,0.00,WUHU216HW,2013-02-20 02:01:00,
2013-02-19 21:06:00,40.7,38.0,29.64,ESE,113,1.8,4.9,90,0.00,,,0.00,WUHU216HW,2013-02-20 02:06:00,
2013-02-19 21:11:00,40.3,37.6,29.63,NNE,23,0.0,3.8,90,0.00,,,0.00,WUHU216HW,2013-02-20 02:11:00,
2013-02-19 21:16:00,40.3,37.4,29.62,WNW,293,1.6,3.1,89,0.00,,,0.00,WUHU216HW,2013-02-20 02:16:00,
2013-02-19 21:21:00,40.3,37.4,29.62,WNW,293,1.1,3.1,89,0.00,,,0.00,WUHU216HW,2013-02-20 02:21:00,
2013-02-19 21:26:00,40.3,37.0,29.62,WNW,293,3.4,4.0,88,0.00,,,0.00,WUHU216HW,2013-02-20 02:26:00,
2013-02-19 21:31:00,40.7,38.0,29.61,SW,225,1.1,4.7,90,0.00,,,0.00,WUHU216HW,2013-02-20 02:31:00,
2013-02-19 21:36:00,40.9,38.4,29.62,WSW,248,0.7,4.7,91,0.00,,,0.00,WUHU216HW,2013-02-20 02:36:00,
2013-02-19 21:41:00,40.7,38.0,29.63,WSW,248,0.7,1.3,90,0.00,,,0.00,WUHU216HW,2013-02-20 02:41:00,
2013-02-19 21:46:00,40.3,37.9,29.63,SW,225,0.7,1.3,91,0.00,,,0.00,WUHU216HW,2013-02-20 02:46:00,
2013-02-19 21:51:00,40.1,37.4,29.62,SW,225,0.4,1.3,90,0.00,,,0.00,WUHU216HW,2013-02-20 02:51:00,
2013-02-19 21:56:00,40.1,37.2,29.62,West,270,1.3,1.3,89,0.00,,,0.00,WUHU216HW,2013-02-20 02:56:00,
2013-02-19 22:01:00,40.0,37.0,29.62,West,270,0.0,1.3,89,0.00,,,0.00,WUHU216HW,2013-02-20 03:01:00,
2013-02-19 22:06:00,39.8,37.1,29.62,WSW,248,0.7,1.3,90,0.00,,,0.00,WUHU216HW,2013-02-20 03:06:00,
2013-02-19 22:11:00,39.8,36.8,29.62,WSW,248,0.4,0.7,89,0.00,,,0.00,WUHU216HW,2013-02-20 03:11:00,
2013-02-19 22:16:00,39.8,36.8,29.61,WSW,248,0.0,0.7,89,0.00,,,0.00,WUHU216HW,2013-02-20 03:16:00,
2013-02-19 22:21:00,39.8,36.5,29.61,WSW,248,0.0,0.4,88,0.00,,,0.00,WUHU216HW,2013-02-20 03:21:00,
2013-02-19 22:26:00,39.8,36.5,29.61,WSW,248,0.0,0.0,88,0.00,,,0.00,WUHU216HW,2013-02-20 03:26:00,
2013-02-19 22:31:00,39.4,36.5,29.61,SW,225,0.4,0.7,89,0.00,,,0.00,WUHU216HW,2013-02-20 03:31:00,
2013-02-19 22:36:00,39.4,36.2,29.61,SW,225,0.0,0.7,88,0.00,,,0.00,WUHU216HW,2013-02-20 03:36:00,
2013-02-19 22:41:00,39.4,36.2,29.61,SW,225,0.0,0.7,88,0.00,,,0.00,WUHU216HW,2013-02-20 03:41:00,
2013-02-19 22:45:00,39.4,36.2,29.59,WNW,293,0.4,1.3,88,0.00,,,0.00,WUHU216HW,2013-02-20 03:45:00,
2013-02-19 22:50:00,39.2,35.6,29.59,WNW,293,0.0,1.3,87,0.00,,,0.00,WUHU216HW,2013-02-20 03:50:00,
2013-02-19 22:55:00,38.9,35.7,29.59,WNW,293,0.9,1.3,88,0.00,,,0.00,WUHU216HW,2013-02-20 03:55:00,
2013-02-19 23:00:00,38.7,35.1,29.58,WNW,293,0.4,0.9,87,0.00,,,0.00,WUHU216HW,2013-02-20 04:00:00,
2013-02-19 23:05:00,38.5,34.9,29.58,WNW,293,0.0,1.1,87,0.00,,,0.00,WUHU216HW,2013-02-20 04:05:00,
2013-02-19 23:11:00,38.5,34.9,29.58,WNW,293,0.9,1.1,87,0.00,,,0.00,WUHU216HW,2013-02-20 04:11:00,
2013-02-19 23:15:00,38.5,35.3,29.58,WNW,293,0.0,0.9,88,0.00,,,0.00,WUHU216HW,2013-02-20 04:15:00,
2013-02-19 23:20:00,38.3,35.1,29.57,WNW,293,0.0,0.9,88,0.00,,,0.00,WUHU216HW,2013-02-20 04:20:00,
2013-02-19 23:25:00,38.3,35.1,29.58,WNW,293,0.0,0.0,88,0.00,,,0.00,WUHU216HW,2013-02-20 04:25:00,
2013-02-19 23:30:00,38.3,35.6,29.58,West,270,0.2,0.4,90,0.00,,,0.00,WUHU216HW,2013-02-20 04:30:00,
2013-02-19 23:35:00,38.3,35.9,29.57,SW,225,0.9,0.9,91,0.00,,,0.00,WUHU216HW,2013-02-20 04:35:00,
2013-02-19 23:40:00,38.0,35.3,29.58,SW,225,0.9,1.3,90,0.00,,,0.00,WUHU216HW,2013-02-20 04:40:00,
2013-02-19 23:45:00,38.0,35.3,29.58,WSW,248,1.1,1.8,90,0.00,,,0.00,WUHU216HW,2013-02-20 04:45:00,
2013-02-19 23:50:00,38.2,35.7,29.58,South,180,1.1,1.8,91,0.00,,,0.00,WUHU216HW,2013-02-20 04:50:00,
2013-02-19 23:55:00,38.0,35.3,29.57,WSW,248,0.9,1.3,90,0.00,,,0.00,WUHU216HW,2013-02-20 04:55:00,